Seattle, Washington
Traffic Map
Current Weather Conditions
Seattle, Washington
Broken Clouds
Broken Clouds
11°
Feels Like: 11°
Wind Chill: 11° Ceiling: 3800
Heat Index: 11° Visibility: 10mi
Dew Point: Wind: 0mph
Humidity: 74% Direction: ° ()
Pressure: 30.39in Gusts: 0mph
Raw Report DataKBFI 281753Z 00000KT 10SM SCT011 BKN038 11/06 A3039 RMK AO2 SLP290 T01060061 10106 20089 53010
Traffic Incident Summary
Active as of:
Severity:
Category:
InformationThere was an issue retrieving the traffic information for this location. Please try a different location or try again shortly.
Advertisements
Track Severe Weather on mobile